createdAt,value
2023-01-11T04:41:42.097Z,100668.78
2023-01-11T04:44:49.423Z,100668.78
2023-01-11T04:47:56.848Z,100685.69
2023-01-11T04:50:59.716Z,100701.09
2023-01-11T04:54:02.650Z,100706.97
2023-01-11T04:57:06.487Z,100720.84
2023-01-11T05:00:10.877Z,100712.13
2023-01-11T05:03:13.491Z,100707.72
2023-01-11T05:06:16.209Z,100708.69
2023-01-11T05:09:19.383Z,100714.78
2023-01-11T05:12:21.921Z,100719.13
2023-01-11T05:15:24.559Z,100716.56
2023-01-11T05:18:26.903Z,100710.47
2023-01-11T05:21:35.654Z,100703.69
2023-01-11T05:24:38.063Z,100697.59
2023-01-11T05:27:40.694Z,100705.31
2023-01-11T05:30:43.447Z,100726.13
2023-01-11T05:33:46.288Z,100737.38
2023-01-11T05:36:48.773Z,100719.22
2023-01-11T05:39:51.694Z,100719.38
2023-01-11T05:42:54.597Z,100715.16
2023-01-11T05:45:58.569Z,100706.50
2023-01-11T05:49:01.031Z,100714.13
2023-01-11T05:52:03.737Z,100709.81
2023-01-11T05:55:06.814Z,100703.94
2023-01-11T05:58:09.657Z,100706.50
2023-01-11T06:01:13.040Z,100704.69
2023-01-11T06:04:15.860Z,100696.12
2023-01-11T06:07:18.221Z,100698.91
2023-01-11T06:10:21.540Z,100693.63
2023-01-11T06:13:28.920Z,100700.47
2023-01-11T06:16:31.929Z,100703.00
2023-01-11T06:19:34.645Z,100700.47
2023-01-11T06:22:37.458Z,100698.69
2023-01-11T06:25:39.770Z,100704.00
2023-01-11T06:28:43.313Z,100702.28
2023-01-11T06:31:48.914Z,100699.59
2023-01-11T06:34:51.510Z,100691.84
2023-01-11T06:37:53.847Z,100706.44
2023-01-11T06:41:01.372Z,100705.56
2023-01-11T06:44:04.379Z,100707.38
2023-01-11T06:47:07.239Z,100709.19
2023-01-11T06:50:10.348Z,100725.50
2023-01-11T06:53:13.198Z,100731.47
2023-01-11T06:56:18.926Z,100731.47
2023-01-11T06:59:21.685Z,100734.00
2023-01-11T07:02:24.807Z,100737.59
2023-01-11T07:05:27.475Z,100746.16
2023-01-11T07:08:30.271Z,100746.94
2023-01-11T07:11:34.862Z,100750.47
2023-01-11T07:14:37.751Z,100759.97
2023-01-11T07:17:40.440Z,100770.34
2023-01-11T07:20:43.247Z,100779.75
2023-01-11T07:23:48.997Z,100789.19
2023-01-11T07:26:52.590Z,100802.03
2023-01-11T07:29:59.863Z,100803.84
2023-01-11T07:33:04.235Z,100801.31
2023-01-11T07:36:07.834Z,100806.50
2023-01-11T07:39:10.226Z,100810.03
2023-01-11T07:42:31.876Z,100808.25
2023-01-11T07:45:45.453Z,100804.84
2023-01-11T07:48:48.994Z,100801.34
2023-01-11T07:51:52.193Z,100797.09
2023-01-11T07:54:54.930Z,100791.97
2023-01-11T07:57:57.617Z,100788.31
2023-01-11T08:01:00.311Z,100776.13
2023-01-11T08:04:04.251Z,100780.44
2023-01-11T08:07:07.002Z,100783.88
2023-01-11T08:10:10.287Z,100784.69
2023-01-11T08:13:32.823Z,100786.84
2023-01-11T08:16:35.538Z,100796.34
2023-01-11T08:19:41.764Z,100806.81
2023-01-11T08:22:44.579Z,100809.59
2023-01-11T08:25:47.004Z,100807.91
2023-01-11T08:28:49.905Z,100806.19
2023-01-11T08:31:52.729Z,100816.47
2023-01-11T08:34:55.543Z,100819.09
2023-01-11T08:37:58.051Z,100827.47
2023-01-11T08:41:10.668Z,100825.56
2023-01-11T08:44:15.016Z,100820.03
2023-01-11T08:47:17.935Z,100827.31
2023-01-11T08:50:22.253Z,100821.09
2023-01-11T08:53:25.913Z,100819.34
2023-01-11T08:56:28.353Z,100816.75
2023-01-11T08:59:31.307Z,100826.38
2023-01-11T09:02:33.850Z,100818.44
2023-01-11T09:05:37.883Z,100814.91
2023-01-11T09:08:40.479Z,100822.31
2023-01-11T09:11:56.786Z,100819.50
2023-01-11T09:14:59.809Z,100825.56
2023-01-11T09:18:03.189Z,100819.72
2023-01-11T09:21:05.831Z,100819.50
2023-01-11T09:24:08.762Z,100819.44
2023-01-11T09:27:12.107Z,100820.81
2023-01-11T09:30:17.826Z,100828.50
2023-01-11T09:33:21.439Z,100812.75
2023-01-11T09:36:26.855Z,100816.59
2023-01-11T09:39:29.665Z,100810.53
2023-01-11T09:42:39.717Z,100808.25
2023-01-11T09:45:46.762Z,100802.16
2023-01-11T09:48:55.050Z,100809.63
2023-01-11T09:52:13.605Z,100806.81
2023-01-11T09:55:25.127Z,100795.69
2023-01-11T09:58:54.958Z,100802.13
2023-01-11T10:02:05.589Z,100804.16
2023-01-11T10:05:18.565Z,100790.66
2023-01-11T10:18:29.668Z,100770.62
2023-01-11T10:20:01.268Z,100760.50
2023-01-11T10:23:17.343Z,100757.44
2023-01-11T10:26:30.966Z,100763.25
2023-01-11T10:30:13.579Z,100763.00
2023-01-11T10:33:38.126Z,100764.38
2023-01-11T10:37:11.633Z,100769.97
2023-01-11T10:40:28.462Z,100769.31
2023-01-11T10:43:35.413Z,100762.94
2023-01-11T10:46:44.497Z,100760.09
2023-01-11T10:50:00.551Z,100764.94
2023-01-11T10:53:29.269Z,100767.59
2023-01-11T10:56:42.528Z,100770.84
2023-01-11T11:00:22.587Z,100767.09
2023-01-11T11:03:45.734Z,100763.13
2023-01-11T11:06:51.323Z,100769.22
2023-01-11T11:10:15.176Z,100761.44
2023-01-11T11:13:26.647Z,100763.09
2023-01-11T11:16:57.499Z,100751.19
2023-01-11T11:20:00.721Z,100740.62
2023-01-11T11:23:03.211Z,100734.56
2023-01-11T11:26:07.354Z,100728.16
2023-01-11T11:29:19.535Z,100726.59
2023-01-11T11:32:36.742Z,100733.59
2023-01-11T11:35:46.579Z,100718.59
2023-01-11T11:39:09.970Z,100731.94
2023-01-11T11:42:17.000Z,100723.34
2023-01-11T11:45:19.821Z,100725.56
2023-01-11T11:48:23.639Z,100717.34
2023-01-11T11:51:27.745Z,100726.62
2023-01-11T11:54:43.131Z,100719.16
2023-01-11T11:57:47.829Z,100721.16
2023-01-11T12:00:52.452Z,100726.84
2023-01-11T12:04:02.683Z,100727.78
2023-01-11T12:07:17.617Z,100727.41
2023-01-11T12:10:23.749Z,100726.09
2023-01-11T12:13:28.884Z,100729.81
2023-01-11T12:16:36.471Z,100720.22
2023-01-11T12:19:43.888Z,100724.31
2023-01-11T12:22:47.395Z,100730.09
2023-01-11T12:26:13.186Z,100728.94
2023-01-11T12:29:28.383Z,100725.13
2023-01-11T12:32:52.541Z,100730.75
2023-01-11T12:36:04.038Z,100727.16
2023-01-11T12:39:30.425Z,100729.22
2023-01-11T12:42:48.823Z,100736.88
2023-01-11T12:46:34.423Z,100724.31
2023-01-11T12:49:43.118Z,100726.06
2023-01-11T12:52:52.266Z,100729.00
2023-01-11T12:56:20.292Z,100739.13
2023-01-11T12:59:38.315Z,100733.44
2023-01-11T13:03:05.859Z,100725.34
2023-01-11T13:06:33.690Z,100720.88
2023-01-11T13:09:45.895Z,100718.16
2023-01-11T13:12:58.513Z,100725.09
2023-01-11T13:16:24.647Z,100720.03
2023-01-11T13:19:37.612Z,100727.72
2023-01-11T13:22:46.978Z,100719.03
2023-01-11T13:25:52.913Z,100722.78
2023-01-11T13:29:25.513Z,100729.22
2023-01-11T13:32:38.025Z,100733.22
2023-01-11T13:36:15.092Z,100728.69
2023-01-11T13:40:01.329Z,100731.38
2023-01-11T13:43:13.386Z,100741.53
2023-01-11T13:46:23.529Z,100738.97
2023-01-11T13:49:41.179Z,100740.12
2023-01-11T13:53:03.870Z,100733.34
2023-01-11T13:56:15.909Z,100734.59
2023-01-11T13:59:34.598Z,100735.25
2023-01-11T14:02:46.603Z,100740.75
2023-01-11T14:06:01.552Z,100742.88
2023-01-11T14:09:25.774Z,100737.41
2023-01-11T14:12:51.704Z,100740.31
2023-01-11T14:16:03.754Z,100739.41
2023-01-11T14:19:20.022Z,100732.91
2023-01-11T14:22:34.897Z,100733.06
2023-01-11T14:25:54.613Z,100744.00
2023-01-11T14:29:25.641Z,100727.03
2023-01-11T14:32:41.175Z,100723.19
2023-01-11T14:35:57.680Z,100727.22
2023-01-11T14:39:13.505Z,100733.53
2023-01-11T14:42:44.460Z,100731.84
2023-01-11T14:45:59.041Z,100733.94
2023-01-11T14:49:32.572Z,100736.13
2023-01-11T14:52:40.411Z,100732.00
2023-01-11T14:55:45.178Z,100728.37
2023-01-11T14:59:05.651Z,100725.16
2023-01-11T15:02:11.037Z,100725.72
2023-01-11T15:05:29.229Z,100719.28
2023-01-11T15:08:45.782Z,100721.50
2023-01-11T15:11:48.478Z,100716.06
2023-01-11T15:15:01.033Z,100715.37
2023-01-11T15:18:18.877Z,100722.41
2023-01-11T15:21:24.967Z,100721.34
2023-01-11T15:24:30.848Z,100725.28
2023-01-11T15:27:39.317Z,100730.81
2023-01-11T15:30:51.916Z,100734.06
2023-01-11T15:33:55.773Z,100739.69
2023-01-11T15:37:02.256Z,100731.87
2023-01-11T15:40:21.247Z,100728.25
2023-01-11T15:43:36.109Z,100744.34
2023-01-11T15:47:01.376Z,100740.16
2023-01-11T15:50:06.278Z,100732.66
2023-01-11T15:53:33.662Z,100729.63
2023-01-11T15:56:42.599Z,100740.28
2023-01-11T16:00:21.598Z,100743.19
2023-01-11T16:03:30.535Z,100739.06
2023-01-11T16:06:36.129Z,100745.34
2023-01-11T16:09:59.981Z,100745.53
2023-01-11T16:13:21.288Z,100742.78
2023-01-11T16:16:29.011Z,100743.97
2023-01-11T16:19:33.751Z,100736.41
2023-01-11T16:22:36.542Z,100736.50
2023-01-11T16:25:41.416Z,100733.16
2023-01-11T16:28:49.672Z,100724.63
2023-01-11T16:31:53.852Z,100734.28
2023-01-11T16:34:56.948Z,100728.97
2023-01-11T16:38:02.585Z,100730.06
2023-01-11T16:41:07.062Z,100738.94
2023-01-11T16:44:33.231Z,100738.25
2023-01-11T16:47:36.004Z,100739.75
2023-01-11T16:50:41.909Z,100739.00
